Time;durP1;ratioP1;P1;durP2;ratioP2;P2;SDS_P1;SDS_P2;PMS_P1;PMS_P2;Temp;Humidity;BMP_temperature;BMP_pressure;BME280_temperature;BME280_humidity;BME280_pressure;Samples;Min_cycle;Max_cycle;Signal;HPM_P1;HPM_P2
2022/05/28 00:00:53;;;;;;;5.13;1.60;;;12.60;99.90;;;;;;4886981;29;20489;-88
2022/05/28 00:03:20;;;;;;;8.38;1.85;;;12.60;99.90;;;;;;4872177;29;20397;-87
2022/05/28 00:05:46;;;;;;;8.57;1.50;;;12.60;99.90;;;;;;4903068;29;20040;-87
2022/05/28 00:08:12;;;;;;;7.45;1.48;;;12.70;99.90;;;;;;4870096;29;20037;-87
2022/05/28 00:10:38;;;;;;;9.55;1.75;;;12.60;99.90;;;;;;4893053;29;20040;-87
2022/05/28 00:13:04;;;;;;;8.70;1.55;;;12.60;99.90;;;;;;4888374;29;20072;-87
2022/05/28 00:15:30;;;;;;;5.70;1.67;;;12.60;99.90;;;;;;4889426;29;20040;-88
2022/05/28 00:17:56;;;;;;;8.00;1.70;;;12.70;99.90;;;;;;4908418;29;20042;-88
2022/05/28 00:20:22;;;;;;;9.40;1.58;;;12.70;99.90;;;;;;4869579;29;20044;-88
2022/05/28 00:22:47;;;;;;;4.75;1.17;;;12.60;99.90;;;;;;4878183;29;20036;-85
2022/05/28 00:25:15;;;;;;;9.68;1.35;;;12.50;99.90;;;;;;4870596;29;20100;-88
2022/05/28 00:27:41;;;;;;;7.68;1.80;;;12.60;99.90;;;;;;4900998;29;20086;-88
2022/05/28 00:30:09;;;;;;;11.13;1.83;;;12.60;99.90;;;;;;4898330;29;20067;-88
2022/05/28 00:32:35;;;;;;;5.75;1.35;;;12.60;99.90;;;;;;4889893;29;20040;-88
2022/05/28 00:35:02;;;;;;;7.93;1.33;;;12.60;99.90;;;;;;4903453;29;20099;-87
2022/05/28 00:37:28;;;;;;;4.88;1.20;;;12.60;99.90;;;;;;4912532;29;20072;-87
2022/05/28 00:39:54;;;;;;;8.35;1.77;;;12.60;99.90;;;;;;4902171;29;20415;-87
2022/05/28 00:42:19;;;;;;;6.45;1.20;;;12.60;99.90;;;;;;4888870;29;20048;-87
2022/05/28 00:44:45;;;;;;;7.63;1.23;;;12.60;99.90;;;;;;4900735;29;20044;-88
2022/05/28 00:47:12;;;;;;;7.05;1.23;;;12.60;99.90;;;;;;4905820;29;20125;-89
2022/05/28 00:49:38;;;;;;;5.30;1.15;;;12.60;99.90;;;;;;4886234;29;20104;-88
2022/05/28 00:52:07;;;;;;;2.03;0.63;;;12.50;99.90;;;;;;4893156;29;20045;-88
2022/05/28 00:54:45;;;;;;;5.38;1.08;;;12.40;99.90;;;;;;4875175;29;20044;-87
2022/05/28 00:57:13;;;;;;;10.18;1.50;;;12.40;99.90;;;;;;4901306;29;20496;-80
2022/05/28 00:59:38;;;;;;;7.28;1.15;;;12.30;99.90;;;;;;4893401;29;20050;-87
2022/05/28 01:02:12;;;;;;;3.40;0.90;;;12.30;99.90;;;;;;4915772;29;20131;-78
2022/05/28 01:04:46;;;;;;;3.72;1.10;;;12.20;99.90;;;;;;4894027;29;20481;-79
2022/05/28 01:07:31;;;;;;;4.18;1.00;;;12.10;99.90;;;;;;4880909;29;20072;-78
2022/05/28 01:10:02;;;;;;;6.07;1.10;;;12.10;99.90;;;;;;4899192;29;20115;-78
2022/05/28 01:13:00;;;;;;;6.85;1.30;;;12.00;99.90;;;;;;4890978;29;20045;-78
2022/05/28 01:15:31;;;;;;;5.65;1.48;;;12.00;99.90;;;;;;4895071;29;20040;-78
2022/05/28 01:18:02;;;;;;;4.60;1.27;;;11.90;99.90;;;;;;4899144;29;20141;-78
2022/05/28 01:20:37;;;;;;;8.32;1.15;;;11.90;99.90;;;;;;4883672;29;20126;-78
2022/05/28 01:23:29;;;;;;;7.00;1.38;;;11.90;99.90;;;;;;4887636;29;20041;-78
2022/05/28 01:26:34;;;;;;;9.10;1.67;;;11.90;99.90;;;;;;4882283;29;20071;-78
2022/05/28 01:29:07;;;;;;;8.27;1.75;;;11.80;99.90;;;;;;4882303;29;20044;-78
2022/05/28 01:31:34;;;;;;;8.52;1.70;;;11.80;99.90;;;;;;4898319;29;20445;-78
2022/05/28 01:34:04;;;;;;;11.40;2.35;;;11.70;99.90;;;;;;4903088;29;20408;-77
2022/05/28 01:36:32;;;;;;;7.40;1.52;;;11.70;99.90;;;;;;4899732;29;20111;-78
2022/05/28 01:38:57;;;;;;;10.48;2.00;;;11.70;99.90;;;;;;4882450;29;20167;-78
2022/05/28 01:41:25;;;;;;;6.78;1.40;;;11.60;99.90;;;;;;4897614;29;20131;-78
2022/05/28 01:43:52;;;;;;;7.00;1.25;;;11.60;99.90;;;;;;4867428;29;20044;-79
2022/05/28 01:46:21;;;;;;;9.20;1.13;;;11.60;99.90;;;;;;4871570;29;20044;-78
2022/05/28 01:48:52;;;;;;;6.25;1.30;;;11.50;99.90;;;;;;4885668;29;20131;-78
2022/05/28 01:51:20;;;;;;;7.78;1.60;;;11.50;99.90;;;;;;4895359;29;20055;-78
2022/05/28 01:56:31;;;;;;;9.77;1.23;;;11.40;99.90;;;;;;4884848;29;20563;-78
2022/05/28 01:58:57;;;;;;;4.72;1.13;;;11.30;99.90;;;;;;4869962;29;20083;-78
2022/05/28 02:01:23;;;;;;;8.38;1.80;;;11.30;99.90;;;;;;4894546;29;20045;-78
2022/05/28 02:03:51;;;;;;;5.90;1.30;;;11.30;99.90;;;;;;4897074;29;20044;-78
2022/05/28 02:06:17;;;;;;;7.28;1.27;;;11.20;99.90;;;;;;4895349;29;20074;-78
2022/05/28 02:08:45;;;;;;;5.80;1.27;;;11.20;99.90;;;;;;4874274;29;20491;-78
2022/05/28 02:11:25;;;;;;;4.78;1.40;;;11.20;99.90;;;;;;4889733;29;20416;-77
2022/05/28 02:14:09;;;;;;;8.75;1.73;;;10.50;99.90;;;;;;4887516;29;20523;-78
2022/05/28 02:16:40;;;;;;;7.32;1.40;;;11.10;99.90;;;;;;4887144;29;20036;-78
2022/05/28 02:19:19;;;;;;;8.90;1.60;;;11.00;99.90;;;;;;4886751;29;20051;-78
2022/05/28 02:22:01;;;;;;;6.75;1.27;;;11.00;99.90;;;;;;4880903;29;20066;-78
2022/05/28 02:24:40;;;;;;;11.70;1.70;;;11.00;99.90;;;;;;4900944;29;20092;-78
2022/05/28 02:27:14;;;;;;;9.35;1.23;;;10.90;99.90;;;;;;4902758;29;20102;-78
2022/05/28 02:29:41;;;;;;;7.05;1.50;;;10.90;99.90;;;;;;4886930;29;20500;-78
2022/05/28 02:32:16;;;;;;;9.48;1.40;;;10.80;99.90;;;;;;4900440;29;20127;-78
2022/05/28 02:34:45;;;;;;;11.25;1.52;;;10.80;99.90;;;;;;4899418;29;20096;-78
2022/05/28 02:37:20;;;;;;;8.68;1.40;;;10.80;99.90;;;;;;4887179;29;20078;-77
2022/05/28 02:39:46;;;;;;;10.43;1.40;;;10.80;99.90;;;;;;4885786;29;20369;-78
2022/05/28 02:42:11;;;;;;;8.05;1.73;;;10.70;99.90;;;;;;4873197;29;20036;-78
2022/05/28 02:44:37;;;;;;;5.57;1.50;;;10.80;99.90;;;;;;4886734;29;20036;-78
2022/05/28 02:47:04;;;;;;;8.20;1.77;;;11.00;99.90;;;;;;4871256;29;20405;-78
2022/05/28 02:49:30;;;;;;;8.75;1.40;;;10.70;99.90;;;;;;4900214;29;20064;-78
2022/05/28 02:51:56;;;;;;;9.85;1.63;;;10.60;99.90;;;;;;4897930;29;20384;-78
2022/05/28 02:54:22;;;;;;;6.30;1.50;;;10.60;99.90;;;;;;4875216;29;20047;-78
2022/05/28 02:56:48;;;;;;;6.13;1.63;;;10.60;99.90;;;;;;4885682;29;20500;-78
2022/05/28 02:59:15;;;;;;;11.10;1.70;;;10.70;99.90;;;;;;4873668;29;20040;-78
2022/05/28 03:01:41;;;;;;;8.07;1.77;;;10.50;99.90;;;;;;4884149;29;20157;-78
2022/05/28 03:04:07;;;;;;;10.05;2.20;;;10.50;99.90;;;;;;4876564;29;20069;-78
2022/05/28 03:06:35;;;;;;;10.13;1.70;;;10.40;99.90;;;;;;4886151;29;20076;-78
2022/05/28 03:09:02;;;;;;;8.98;2.00;;;10.50;99.90;;;;;;4887221;29;20048;-78
2022/05/28 03:11:28;;;;;;;8.18;1.77;;;10.50;99.90;;;;;;4890005;29;21567;-78
2022/05/28 03:13:54;;;;;;;10.13;1.50;;;10.40;99.90;;;;;;4886319;29;20107;-78
2022/05/28 03:16:20;;;;;;;12.43;1.70;;;10.40;99.90;;;;;;4885564;29;20036;-78
2022/05/28 03:18:46;;;;;;;13.73;1.98;;;10.40;99.90;;;;;;4882911;29;20044;-78
2022/05/28 03:21:11;;;;;;;8.40;1.60;;;10.40;99.90;;;;;;4885069;29;20044;-78
2022/05/28 03:23:37;;;;;;;11.43;1.75;;;10.40;99.90;;;;;;4899044;29;20051;-78
2022/05/28 03:26:13;;;;;;;11.80;1.80;;;10.40;99.90;;;;;;4901435;29;20118;-78
2022/05/28 03:28:39;;;;;;;6.57;1.67;;;10.40;99.90;;;;;;4875380;29;20048;-78
2022/05/28 03:31:05;;;;;;;9.18;1.90;;;10.30;99.90;;;;;;4900800;29;20048;-78
2022/05/28 03:33:31;;;;;;;9.15;1.60;;;10.30;99.90;;;;;;4901048;29;20041;-78
2022/05/28 03:35:56;;;;;;;11.88;2.15;;;10.30;99.90;;;;;;4898673;29;20037;-78
2022/05/28 03:38:22;;;;;;;10.88;1.75;;;10.30;99.90;;;;;;4870993;29;20040;-78
2022/05/28 03:40:48;;;;;;;10.38;1.77;;;10.30;99.90;;;;;;4886817;29;20040;-78
2022/05/28 03:43:13;;;;;;;7.88;1.60;;;10.30;99.90;;;;;;4899160;29;20125;-78
2022/05/28 03:45:39;;;;;;;8.02;1.60;;;10.30;99.90;;;;;;4884792;29;20036;-78
2022/05/28 03:48:07;;;;;;;7.47;1.73;;;10.30;99.90;;;;;;4863716;29;20056;-78
2022/05/28 03:50:33;;;;;;;9.90;1.73;;;10.30;99.90;;;;;;4901242;29;20044;-78
2022/05/28 03:52:58;;;;;;;7.00;1.95;;;10.30;99.90;;;;;;4886331;29;20119;-79
2022/05/28 03:55:24;;;;;;;5.93;1.08;;;10.30;99.90;;;;;;4878503;29;20052;-78
2022/05/28 03:57:50;;;;;;;8.65;1.70;;;10.30;99.90;;;;;;4875904;29;20047;-78
2022/05/28 04:00:16;;;;;;;6.78;1.60;;;10.30;99.90;;;;;;4891912;29;20036;-78
2022/05/28 04:02:42;;;;;;;9.43;1.60;;;10.30;99.90;;;;;;4884547;29;20044;-78
2022/05/28 04:05:08;;;;;;;12.30;1.75;;;10.30;99.90;;;;;;4897226;29;20146;-78
2022/05/28 04:07:34;;;;;;;10.85;1.73;;;10.30;99.90;;;;;;4872016;29;20307;-78
2022/05/28 04:10:00;;;;;;;11.13;2.05;;;10.30;99.90;;;;;;4887131;29;20044;-78
2022/05/28 04:12:25;;;;;;;10.00;1.83;;;10.40;99.90;;;;;;4874435;29;20064;-78
2022/05/28 04:14:51;;;;;;;9.23;1.70;;;10.20;99.90;;;;;;4881346;29;20049;-78
2022/05/28 04:17:17;;;;;;;8.43;1.50;;;10.20;99.90;;;;;;4868642;29;20096;-78
2022/05/28 04:19:43;;;;;;;10.32;1.83;;;10.20;99.90;;;;;;4901129;29;20044;-79
2022/05/28 04:22:08;;;;;;;11.05;1.83;;;10.30;99.90;;;;;;4868206;29;20049;-78
2022/05/28 04:24:34;;;;;;;10.55;1.70;;;10.20;99.90;;;;;;4898756;29;20041;-78
2022/05/28 04:27:00;;;;;;;10.43;1.58;;;10.20;99.90;;;;;;4900095;29;20079;-78
2022/05/28 04:29:26;;;;;;;11.73;1.90;;;10.30;99.90;;;;;;4898004;29;20037;-78
2022/05/28 04:31:51;;;;;;;8.45;1.67;;;10.30;99.90;;;;;;4884898;29;20084;-79
2022/05/28 04:34:17;;;;;;;11.77;1.73;;;10.30;99.90;;;;;;4883556;29;20052;-78
2022/05/28 04:36:43;;;;;;;11.23;1.80;;;11.10;99.90;;;;;;4867311;29;20040;-77
2022/05/28 04:39:09;;;;;;;13.40;2.28;;;10.30;99.90;;;;;;4884101;29;20040;-78
2022/05/28 04:41:34;;;;;;;10.48;1.70;;;10.30;99.90;;;;;;4899422;29;20056;-78
2022/05/28 04:44:00;;;;;;;12.98;2.00;;;10.40;99.90;;;;;;4888121;29;20385;-78
2022/05/28 04:46:26;;;;;;;11.65;1.83;;;10.40;99.90;;;;;;4883076;29;20072;-78
2022/05/28 04:48:51;;;;;;;9.95;2.00;;;10.40;99.90;;;;;;4884208;29;20064;-78
2022/05/28 04:51:17;;;;;;;11.98;1.80;;;10.90;99.90;;;;;;4888142;29;20122;-77
2022/05/28 04:53:43;;;;;;;13.93;1.98;;;10.50;99.90;;;;;;4899198;29;20074;-78
2022/05/28 04:56:08;;;;;;;8.32;1.63;;;10.50;99.90;;;;;;4884794;29;20055;-78
2022/05/28 04:58:34;;;;;;;13.45;2.55;;;10.60;99.90;;;;;;4885699;29;20051;-77
2022/05/28 05:01:00;;;;;;;11.40;2.00;;;10.60;99.90;;;;;;4869596;29;20461;-79
2022/05/28 05:03:26;;;;;;;8.57;1.60;;;10.70;99.90;;;;;;4884808;29;20054;-78
2022/05/28 05:05:52;;;;;;;11.80;2.03;;;10.60;99.90;;;;;;4900261;29;20079;-79
2022/05/28 05:08:17;;;;;;;10.68;2.03;;;10.80;99.90;;;;;;4887143;29;20067;-78
2022/05/28 05:10:45;;;;;;;11.27;1.90;;;10.70;99.90;;;;;;4881429;29;20040;-79
2022/05/28 05:13:11;;;;;;;11.68;2.03;;;10.70;99.90;;;;;;4875201;29;20036;-79
2022/05/28 05:15:38;;;;;;;15.82;1.95;;;10.80;99.90;;;;;;4897001;29;20506;-78
2022/05/28 05:18:04;;;;;;;14.95;2.20;;;10.80;99.90;;;;;;4880719;29;20072;-78
2022/05/28 05:20:30;;;;;;;11.57;1.98;;;10.80;99.90;;;;;;4883813;29;20048;-78
2022/05/28 05:22:56;;;;;;;8.40;1.92;;;10.80;99.90;;;;;;4898886;29;20055;-78
2022/05/28 05:25:23;;;;;;;14.32;2.22;;;10.90;99.90;;;;;;4876256;29;20071;-78
2022/05/28 05:27:49;;;;;;;10.98;1.92;;;10.90;99.90;;;;;;4882783;29;20391;-78
2022/05/28 05:30:15;;;;;;;14.13;2.25;;;11.00;99.90;;;;;;4896981;29;20099;-78
2022/05/28 05:32:41;;;;;;;11.43;1.98;;;11.00;99.90;;;;;;4869939;29;20412;-78
2022/05/28 05:35:07;;;;;;;15.65;2.80;;;11.10;99.90;;;;;;4865707;29;20037;-78
2022/05/28 05:37:32;;;;;;;12.63;2.33;;;11.10;99.90;;;;;;4881429;29;20058;-78
2022/05/28 05:39:58;;;;;;;11.40;1.95;;;11.20;99.90;;;;;;4900854;29;20517;-78
2022/05/28 05:42:24;;;;;;;11.93;2.22;;;11.20;99.90;;;;;;4898030;29;20136;-78
2022/05/28 05:44:50;;;;;;;13.00;2.33;;;11.30;99.90;;;;;;4899322;29;20045;-78
2022/05/28 05:47:15;;;;;;;9.23;1.75;;;11.40;99.90;;;;;;4881658;29;20489;-79
2022/05/28 05:49:41;;;;;;;11.15;2.08;;;11.50;99.90;;;;;;4869972;29;20056;-78
2022/05/28 05:52:07;;;;;;;10.60;2.45;;;11.50;99.90;;;;;;4887462;29;20119;-78
2022/05/28 05:54:33;;;;;;;13.27;2.30;;;11.60;99.90;;;;;;4870359;29;20060;-77
2022/05/28 05:56:59;;;;;;;11.15;2.10;;;11.70;99.90;;;;;;4879105;29;20393;-78
2022/05/28 05:59:25;;;;;;;10.95;1.90;;;11.70;99.90;;;;;;4883383;29;20043;-78
2022/05/28 06:01:51;;;;;;;11.20;2.53;;;11.70;99.90;;;;;;4898822;29;20051;-78
2022/05/28 06:04:16;;;;;;;10.38;1.92;;;11.80;99.90;;;;;;4898774;29;20055;-78
2022/05/28 06:06:42;;;;;;;10.40;2.20;;;11.90;99.90;;;;;;4871221;29;20044;-78
2022/05/28 06:09:08;;;;;;;12.88;2.42;;;11.90;99.90;;;;;;4882388;29;20108;-78
2022/05/28 06:11:34;;;;;;;9.02;2.13;;;12.00;99.90;;;;;;4885362;29;20049;-78
2022/05/28 06:14:00;;;;;;;10.48;2.15;;;12.00;99.90;;;;;;4898427;29;20481;-78
2022/05/28 06:16:26;;;;;;;8.82;1.95;;;12.00;99.90;;;;;;4879553;29;20143;-78
2022/05/28 06:18:52;;;;;;;12.75;2.38;;;12.10;99.90;;;;;;4872036;29;20107;-78
2022/05/28 06:21:18;;;;;;;10.73;2.35;;;12.10;99.90;;;;;;4900179;29;20052;-78
2022/05/28 06:23:44;;;;;;;9.57;2.50;;;12.10;99.90;;;;;;4882430;29;20045;-78
2022/05/28 06:26:11;;;;;;;10.82;2.13;;;12.10;99.90;;;;;;4883170;29;20520;-78
2022/05/28 06:28:37;;;;;;;11.60;2.15;;;12.30;99.90;;;;;;4898751;29;20060;-78
2022/05/28 06:31:06;;;;;;;8.98;2.30;;;12.40;99.90;;;;;;4882552;29;20044;-77
2022/05/28 06:33:32;;;;;;;10.25;2.30;;;12.40;99.90;;;;;;4901210;29;20081;-78
2022/05/28 06:36:03;;;;;;;14.65;2.42;;;12.50;99.90;;;;;;4902180;29;20043;-77
2022/05/28 06:38:29;;;;;;;9.60;2.08;;;12.60;99.90;;;;;;4898354;29;20076;-80
2022/05/28 06:41:00;;;;;;;9.25;1.83;;;12.70;99.90;;;;;;4902811;29;20068;-79
2022/05/28 06:43:27;;;;;;;12.75;3.72;;;12.80;99.90;;;;;;4891118;29;20473;-78
2022/05/28 06:45:53;;;;;;;13.00;2.28;;;13.00;99.90;;;;;;4894624;29;20416;-78
2022/05/28 06:48:21;;;;;;;14.50;2.67;;;12.80;99.90;;;;;;4911424;29;20052;-79
2022/05/28 06:51:03;;;;;;;12.57;2.10;;;13.00;99.90;;;;;;4889066;29;20037;-79
2022/05/28 06:53:40;;;;;;;14.43;2.50;;;13.00;99.90;;;;;;4868092;29;20504;-79
2022/05/28 06:56:07;;;;;;;10.73;2.25;;;13.10;99.90;;;;;;4888193;29;20132;-80
2022/05/28 06:58:33;;;;;;;9.43;2.08;;;13.10;99.90;;;;;;4891986;29;20040;-79
2022/05/28 07:01:00;;;;;;;11.25;2.92;;;13.00;99.90;;;;;;4901700;29;20043;-78
2022/05/28 07:03:27;;;;;;;13.15;2.90;;;13.00;99.90;;;;;;4869133;29;20033;-79
2022/05/28 07:05:54;;;;;;;12.70;2.38;;;13.00;99.90;;;;;;4893956;29;20405;-80
2022/05/28 07:08:20;;;;;;;9.55;1.67;;;13.00;99.90;;;;;;4883089;29;20064;-80
2022/05/28 07:10:51;;;;;;;17.67;3.20;;;12.90;99.90;;;;;;4882363;29;20099;-79
2022/05/28 07:13:19;;;;;;;7.50;2.03;;;12.90;99.90;;;;;;4898473;29;20040;-79
2022/05/28 07:15:45;;;;;;;8.77;2.20;;;12.90;99.90;;;;;;4893521;29;20054;-80
2022/05/28 07:18:11;;;;;;;10.07;1.90;;;12.90;99.90;;;;;;4903235;29;20082;-79
2022/05/28 07:20:37;;;;;;;11.48;2.50;;;13.00;99.90;;;;;;4870506;29;20044;-82
2022/05/28 07:23:21;;;;;;;8.65;2.17;;;13.00;99.90;;;;;;4869758;29;20048;-81
2022/05/28 07:25:47;;;;;;;11.88;2.70;;;13.10;99.90;;;;;;4899315;29;20044;-81
2022/05/28 07:28:26;;;;;;;10.20;2.30;;;13.20;99.90;;;;;;4869188;29;20043;-81
2022/05/28 07:31:07;;;;;;;10.68;2.13;;;13.40;99.90;;;;;;4889832;29;20036;-80
2022/05/28 07:33:38;;;;;;;12.32;2.42;;;13.60;99.90;;;;;;4894902;29;20036;-80
2022/05/28 07:36:05;;;;;;;18.95;2.90;;;13.60;99.90;;;;;;4891542;29;20131;-80
2022/05/28 07:38:32;;;;;;;12.48;2.30;;;13.50;99.90;;;;;;4899106;29;20047;-80
2022/05/28 07:41:05;;;;;;;8.90;1.90;;;13.50;99.90;;;;;;4900037;29;20052;-80
2022/05/28 07:43:31;;;;;;;13.75;2.22;;;13.60;99.90;;;;;;4900278;29;20460;-80
2022/05/28 07:45:57;;;;;;;11.88;2.70;;;13.70;99.90;;;;;;4872650;29;20036;-80
2022/05/28 07:48:22;;;;;;;9.38;2.15;;;13.70;99.90;;;;;;4904737;29;20101;-80
2022/05/28 07:50:48;;;;;;;10.05;2.22;;;13.80;99.90;;;;;;4873488;29;20426;-80
2022/05/28 07:53:14;;;;;;;13.65;2.42;;;14.00;99.90;;;;;;4881897;29;20461;-81
2022/05/28 07:55:40;;;;;;;13.35;2.67;;;14.10;99.90;;;;;;4901776;29;20045;-80
2022/05/28 07:58:10;;;;;;;11.23;2.78;;;14.30;99.90;;;;;;4900277;29;20385;-80
2022/05/28 08:00:41;;;;;;;10.70;3.30;;;14.40;99.90;;;;;;4898747;29;20055;-80
2022/05/28 08:03:08;;;;;;;12.27;2.25;;;14.20;99.90;;;;;;4888605;29;20067;-80
2022/05/28 08:05:34;;;;;;;11.30;1.90;;;14.00;99.90;;;;;;4888782;29;20433;-80
2022/05/28 08:08:00;;;;;;;11.45;2.13;;;13.90;99.90;;;;;;4898088;29;20032;-79
2022/05/28 08:10:26;;;;;;;7.18;2.05;;;14.00;99.90;;;;;;4873380;29;20148;-80
2022/05/28 08:12:52;;;;;;;10.23;2.13;;;14.10;99.90;;;;;;4908255;29;20044;-81
2022/05/28 08:15:17;;;;;;;6.20;1.92;;;14.10;99.90;;;;;;4894852;29;20092;-80
2022/05/28 08:17:43;;;;;;;10.95;2.30;;;14.10;99.90;;;;;;4870464;29;20119;-80
2022/05/28 08:20:10;;;;;;;10.48;2.63;;;14.10;99.90;;;;;;4871418;29;20044;-80
2022/05/28 08:25:21;;;;;;;11.23;2.10;;;14.10;99.90;;;;;;4899121;29;20044;-80
2022/05/28 08:27:47;;;;;;;11.68;2.28;;;14.00;99.90;;;;;;4885732;29;20044;-80
2022/05/28 08:30:13;;;;;;;9.05;2.10;;;14.00;99.90;;;;;;4901249;29;20358;-79
2022/05/28 08:32:38;;;;;;;8.23;1.83;;;14.10;99.90;;;;;;4885699;29;20460;-80
2022/05/28 08:35:05;;;;;;;6.57;1.60;;;14.30;99.90;;;;;;4901078;29;20051;-80
2022/05/28 08:37:30;;;;;;;12.65;2.38;;;14.40;99.90;;;;;;4886441;29;20071;-80
2022/05/28 08:39:56;;;;;;;10.23;2.35;;;14.70;99.90;;;;;;4888001;29;20485;-80
2022/05/28 08:42:25;;;;;;;10.38;2.20;;;14.70;99.90;;;;;;4887178;29;20044;-80
2022/05/28 08:44:54;;;;;;;10.07;2.22;;;14.70;99.90;;;;;;4902677;29;20493;-79
2022/05/28 08:47:28;;;;;;;10.93;2.67;;;14.50;99.90;;;;;;4891394;29;20045;-79
2022/05/28 08:49:54;;;;;;;15.75;3.13;;;14.50;99.90;;;;;;4901636;29;20084;-79
2022/05/28 08:52:30;;;;;;;9.88;2.63;;;14.60;99.90;;;;;;4887220;29;20040;-80
2022/05/28 08:55:01;;;;;;;9.43;2.00;;;14.60;99.90;;;;;;4884236;29;20091;-80
2022/05/28 08:57:42;;;;;;;10.13;2.30;;;14.60;99.90;;;;;;4892263;29;20045;-80
2022/05/28 09:00:11;;;;;;;10.82;2.35;;;14.70;99.90;;;;;;4892861;29;20055;-80
2022/05/28 09:02:41;;;;;;;7.15;1.80;;;14.60;99.90;;;;;;4906259;29;20052;-79
2022/05/28 09:05:25;;;;;;;11.68;2.20;;;14.70;99.90;;;;;;4899014;29;20043;-80
2022/05/28 09:07:54;;;;;;;11.15;2.15;;;14.90;99.90;;;;;;4897839;29;20036;-80
2022/05/28 09:10:20;;;;;;;9.70;2.08;;;15.00;99.90;;;;;;4896331;29;20043;-80
2022/05/28 09:12:58;;;;;;;9.00;2.50;;;15.00;99.90;;;;;;4900739;29;20493;-79
2022/05/28 09:15:24;;;;;;;14.60;2.10;;;15.10;99.20;;;;;;4899896;29;20497;-80
2022/05/28 09:17:56;;;;;;;13.23;2.80;;;15.30;99.30;;;;;;4874394;29;20176;-79
2022/05/28 09:20:36;;;;;;;12.68;1.90;;;15.60;98.70;;;;;;4899440;29;20048;-80
2022/05/28 09:23:02;;;;;;;9.98;2.40;;;15.80;99.00;;;;;;4898154;29;20039;-79
2022/05/28 09:25:34;;;;;;;7.43;2.00;;;15.80;99.30;;;;;;4884061;29;20206;-79
2022/05/28 09:28:19;;;;;;;9.68;2.10;;;15.70;98.70;;;;;;4881488;29;20180;-80
2022/05/28 09:31:27;;;;;;;9.75;2.25;;;15.40;98.60;;;;;;4889596;29;20584;-80
2022/05/28 09:33:58;;;;;;;5.60;2.05;;;15.40;99.40;;;;;;4892703;29;20084;-80
2022/05/28 09:36:35;;;;;;;13.38;2.65;;;15.50;99.90;;;;;;4900419;29;20048;-80
2022/05/28 09:39:46;;;;;;;9.77;2.13;;;15.90;98.70;;;;;;4899353;29;20048;-79
2022/05/28 09:42:22;;;;;;;7.03;1.83;;;16.30;98.10;;;;;;4903357;29;20048;-79
2022/05/28 09:45:00;;;;;;;;;;;16.60;98.70;;;;;;4885210;29;20044;-79
2022/05/28 09:47:26;;;;;;;8.63;2.50;;;16.70;93.20;;;;;;4883977;29;19919;-79
2022/05/28 09:49:57;;;;;;;9.48;2.38;;;16.60;95.90;;;;;;4888107;29;20405;-80
2022/05/28 09:54:16;;;;;;;11.30;2.40;;;16.50;95.90;;;;;;4893617;29;20048;-80
2022/05/28 09:55:18;;;;;;;12.10;2.42;;;16.20;98.00;;;;;;4894077;29;20055;-81
2022/05/28 09:57:52;;;;;;;9.93;2.10;;;15.80;99.30;;;;;;4893784;29;20079;-79
2022/05/28 10:00:21;;;;;;;10.30;2.40;;;15.60;99.30;;;;;;4882437;29;20087;-79
2022/05/28 10:05:54;;;;;;;13.05;2.40;;;15.50;99.90;;;;;;4911844;29;20079;-78
2022/05/28 10:08:20;;;;;;;7.25;1.88;;;15.70;99.90;;;;;;4899305;29;20040;-78
2022/05/28 10:10:54;;;;;;;11.13;2.28;;;15.90;96.00;;;;;;4898495;29;20037;-79
2022/05/28 10:13:24;;;;;;;9.60;2.30;;;15.90;95.60;;;;;;4893631;29;20068;-79
2022/05/28 10:15:54;;;;;;;8.77;1.80;;;15.90;96.30;;;;;;4907319;29;20048;-79
2022/05/28 10:18:51;;;;;;;13.38;2.70;;;15.80;97.00;;;;;;4887586;29;20122;-79
2022/05/28 10:21:19;;;;;;;10.77;2.15;;;16.10;98.60;;;;;;4899950;29;20075;-80
2022/05/28 10:23:51;;;;;;;10.38;2.15;;;16.20;97.50;;;;;;4895250;29;20076;-79
2022/05/28 10:26:50;;;;;;;11.85;2.45;;;16.10;96.60;;;;;;4886617;29;20040;-80
2022/05/28 10:29:30;;;;;;;10.43;2.03;;;16.00;96.50;;;;;;4880946;29;20056;-80
2022/05/28 10:31:59;;;;;;;8.55;2.00;;;15.90;97.10;;;;;;4900666;29;20032;-80
2022/05/28 10:34:35;;;;;;;8.75;2.25;;;15.90;97.00;;;;;;4886348;29;20044;-80
2022/05/28 10:37:16;;;;;;;9.13;2.05;;;15.80;97.30;;;;;;4888025;29;20083;-80
2022/05/28 10:39:43;;;;;;;9.25;2.00;;;15.70;97.10;;;;;;4903436;29;20080;-81
2022/05/28 10:42:13;;;;;;;11.38;2.55;;;15.80;98.00;;;;;;4893838;29;20079;-80
2022/05/28 10:44:41;;;;;;;13.40;2.33;;;15.70;98.90;;;;;;4870658;29;20683;-79
2022/05/28 10:47:29;;;;;;;9.45;2.85;;;15.60;99.00;;;;;;4889791;29;20043;-79
2022/05/28 10:50:08;;;;;;;9.10;2.60;;;15.70;99.90;;;;;;4902736;29;20052;-80
2022/05/28 10:53:17;;;;;;;11.98;2.25;;;15.70;99.90;;;;;;4887414;29;20485;-79
2022/05/28 10:56:24;;;;;;;10.88;2.33;;;15.80;99.40;;;;;;4874611;29;20049;-79
2022/05/28 10:58:57;;;;;;;11.32;2.40;;;15.80;97.70;;;;;;4873737;29;20044;-80
2022/05/28 11:01:39;;;;;;;9.95;2.22;;;15.70;99.40;;;;;;4901732;29;20393;-79
2022/05/28 11:04:11;;;;;;;12.07;2.90;;;15.70;99.80;;;;;;4874067;29;20048;-80
2022/05/28 11:06:56;;;;;;;10.40;2.40;;;15.60;99.70;;;;;;4903451;29;20501;-79
2022/05/28 11:09:48;;;;;;;9.85;2.40;;;15.60;99.40;;;;;;4896146;29;20052;-80
2022/05/28 11:12:16;;;;;;;13.27;2.42;;;15.50;99.60;;;;;;4859246;29;20178;-80
2022/05/28 11:15:11;;;;;;;13.73;2.85;;;15.50;99.40;;;;;;4887905;29;20035;-80
2022/05/28 11:17:56;;;;;;;9.75;2.38;;;15.50;99.40;;;;;;4882215;29;20054;-79
2022/05/28 11:20:30;;;;;;;10.57;2.08;;;15.50;99.60;;;;;;4884126;29;20079;-80
2022/05/28 11:23:39;;;;;;;14.00;2.50;;;15.60;99.90;;;;;;4902320;29;20064;-81
2022/05/28 11:26:23;;;;;;;12.13;2.70;;;15.80;99.90;;;;;;4898416;29;20067;-80
2022/05/28 11:29:22;;;;;;;11.65;2.42;;;15.90;99.90;;;;;;4903961;29;20051;-79
2022/05/28 11:31:52;;;;;;;11.10;1.98;;;15.80;98.60;;;;;;4886546;29;20515;-79
2022/05/28 11:34:44;;;;;;;11.85;2.35;;;15.70;98.20;;;;;;4899859;29;20489;-79
2022/05/28 11:37:17;;;;;;;9.32;2.20;;;15.50;97.90;;;;;;4879803;29;20052;-79
2022/05/28 11:39:59;;;;;;;14.25;2.80;;;15.40;98.50;;;;;;4914141;29;20032;-79
2022/05/28 11:42:47;;;;;;;12.43;2.10;;;15.30;99.10;;;;;;4911994;29;20044;-80
2022/05/28 11:45:27;;;;;;;10.98;2.00;;;15.30;99.40;;;;;;4889091;29;20040;-80
2022/05/28 11:48:08;;;;;;;10.80;2.10;;;15.30;99.90;;;;;;4901257;29;20225;-79
2022/05/28 11:53:40;;;;;;;7.30;2.47;;;15.40;98.80;;;;;;4895174;29;20044;-79
2022/05/28 11:56:11;;;;;;;6.88;1.75;;;15.50;99.60;;;;;;4892879;29;20556;-78
2022/05/28 11:58:44;;;;;;;8.90;2.30;;;15.80;99.30;;;;;;4899651;29;20051;-78
2022/05/28 12:01:17;;;;;;;12.82;2.83;;;16.10;98.00;;;;;;4895784;29;20048;-79
2022/05/28 12:03:45;;;;;;;7.03;2.05;;;16.40;96.80;;;;;;4902540;29;20094;-78
2022/05/28 12:06:18;;;;;;;10.45;2.38;;;16.50;97.30;;;;;;4897771;29;20127;-78
2022/05/28 12:08:57;;;;;;;10.88;2.13;;;16.50;97.00;;;;;;4883804;29;20040;-78
2022/05/28 12:11:38;;;;;;;9.55;1.83;;;16.40;95.20;;;;;;4900842;29;20143;-78
2022/05/28 12:14:08;;;;;;;11.13;2.20;;;16.20;95.90;;;;;;4900910;29;20080;-78
2022/05/28 12:16:41;;;;;;;9.98;2.17;;;16.10;95.60;;;;;;4897185;29;20426;-78
2022/05/28 12:19:15;;;;;;;11.32;2.20;;;16.00;95.40;;;;;;4897714;29;20059;-78
2022/05/28 12:21:44;;;;;;;10.30;2.22;;;15.90;96.40;;;;;;4887456;29;20044;-78
2022/05/28 12:24:14;;;;;;;7.63;2.00;;;16.10;98.00;;;;;;4862148;29;20576;-78
2022/05/28 12:26:48;;;;;;;9.27;1.88;;;16.40;98.10;;;;;;4898420;29;20074;-78
2022/05/28 12:29:49;;;;;;;12.15;2.20;;;16.80;95.90;;;;;;4899423;29;20234;-78
2022/05/28 12:32:19;;;;;;;6.80;1.75;;;17.10;93.70;;;;;;4899760;29;20063;-78
2022/05/28 12:35:11;;;;;;;8.65;2.00;;;17.40;93.20;;;;;;4897123;29;20186;-78
2022/05/28 12:37:36;;;;;;;7.28;1.85;;;17.70;91.10;;;;;;4890165;29;20048;-79
2022/05/28 12:40:22;;;;;;;6.15;1.85;;;18.00;92.00;;;;;;4898049;29;20062;-78
2022/05/28 12:42:48;;;;;;;11.43;2.60;;;18.00;90.70;;;;;;4899714;29;20051;-78
2022/05/28 12:45:32;;;;;;;8.13;1.48;;;17.80;88.00;;;;;;4899876;29;20048;-78
2022/05/28 12:48:15;;;;;;;7.53;2.03;;;17.40;82.60;;;;;;4886259;29;20060;-78
2022/05/28 12:50:59;;;;;;;7.57;1.70;;;17.20;86.10;;;;;;4895341;29;20040;-80
2022/05/28 12:53:26;;;;;;;6.43;1.80;;;17.20;88.90;;;;;;4891178;29;20064;-78
2022/05/28 12:56:04;;;;;;;8.93;2.20;;;17.10;87.00;;;;;;4906830;29;20047;-79
2022/05/28 12:58:32;;;;;;;12.73;2.47;;;16.90;88.90;;;;;;4876777;29;20048;-78
2022/05/28 13:01:04;;;;;;;12.25;2.30;;;16.60;91.70;;;;;;4900717;29;20056;-78
2022/05/28 13:03:34;;;;;;;8.82;2.20;;;16.20;93.40;;;;;;4897808;29;20083;-78
2022/05/28 13:06:28;;;;;;;9.60;2.83;;;15.80;95.10;;;;;;4899950;29;20044;-78
2022/05/28 13:09:04;;;;;;;10.48;2.55;;;15.50;96.30;;;;;;4901102;29;20108;-79
2022/05/28 13:11:47;;;;;;;12.55;1.95;;;15.30;97.40;;;;;;4899870;29;20087;-79
2022/05/28 13:14:33;;;;;;;10.27;2.47;;;15.20;99.40;;;;;;4884119;29;20055;-79